createdAt,value
2017-05-11T00:00:59.807Z,0
2017-05-11T00:02:12.353Z,0
2017-05-11T00:03:24.866Z,0
2017-05-11T00:04:37.399Z,0
2017-05-11T00:05:49.949Z,0
2017-05-11T00:07:02.180Z,0
2017-05-11T00:08:14.408Z,0
2017-05-11T00:09:26.929Z,0
2017-05-11T00:10:39.427Z,0
2017-05-11T00:11:51.949Z,0
2017-05-11T00:13:04.497Z,0
2017-05-11T00:14:17.041Z,0
2017-05-11T00:15:29.586Z,0
2017-05-11T00:16:42.133Z,0
2017-05-11T00:17:54.679Z,0
2017-05-11T00:19:07.241Z,0
2017-05-11T00:20:20.074Z,0
2017-05-11T00:21:32.634Z,0
2017-05-11T00:22:44.854Z,0
2017-05-11T00:23:57.086Z,0
2017-05-11T00:25:09.626Z,0
2017-05-11T00:26:22.128Z,0
2017-05-11T00:27:34.371Z,0
2017-05-11T00:28:46.618Z,0
2017-05-11T00:29:59.160Z,0
2017-05-11T00:31:11.680Z,0
2017-05-11T00:32:23.954Z,0
2017-05-11T00:33:36.497Z,0
2017-05-11T00:34:49.035Z,0
2017-05-11T00:36:01.568Z,0
2017-05-11T00:37:14.086Z,0
2017-05-11T00:38:26.606Z,0
2017-05-11T00:39:39.101Z,0
2017-05-11T00:40:51.628Z,0
2017-05-11T00:42:04.146Z,0
2017-05-11T00:43:16.731Z,0
2017-05-11T00:44:29.277Z,0
2017-05-11T00:45:41.806Z,0
2017-05-11T00:46:54.023Z,0
2017-05-11T00:48:06.202Z,0
2017-05-11T00:49:18.419Z,0
2017-05-11T00:50:30.940Z,0
2017-05-11T00:51:43.485Z,0
2017-05-11T00:52:56.009Z,0
2017-05-11T00:54:08.548Z,0
2017-05-11T00:55:21.079Z,0
2017-05-11T00:56:33.598Z,0
2017-05-11T00:57:46.121Z,0
2017-05-11T00:58:58.615Z,0
2017-05-11T01:00:10.864Z,0
2017-05-11T01:01:23.438Z,0
2017-05-11T01:02:35.953Z,0
2017-05-11T01:03:48.194Z,0
2017-05-11T01:05:00.744Z,0
2017-05-11T01:06:13.235Z,0
2017-05-11T01:07:25.457Z,0
2017-05-11T01:08:37.994Z,0
2017-05-11T01:09:50.530Z,0
2017-05-11T01:11:02.770Z,0
2017-05-11T01:12:14.993Z,0
2017-05-11T01:13:27.515Z,0
2017-05-11T01:14:40.362Z,0
2017-05-11T01:15:52.904Z,0
2017-05-11T01:17:05.416Z,0
2017-05-11T01:18:17.945Z,0
2017-05-11T01:19:30.445Z,0
2017-05-11T01:20:42.965Z,0
2017-05-11T01:21:55.462Z,0
2017-05-11T01:23:08.008Z,0
2017-05-11T01:24:20.570Z,0
2017-05-11T01:25:32.813Z,0
2017-05-11T01:26:45.038Z,0
2017-05-11T01:27:57.564Z,0
2017-05-11T01:29:10.085Z,0
2017-05-11T01:30:22.631Z,0
2017-05-11T01:31:35.146Z,0
2017-05-11T01:32:47.092Z,0
2017-05-11T01:33:59.336Z,0
2017-05-11T01:35:11.881Z,0
2017-05-11T01:36:24.409Z,0
2017-05-11T01:37:36.980Z,0
2017-05-11T01:38:49.494Z,0
2017-05-11T01:40:02.043Z,0
2017-05-11T01:41:14.243Z,0
2017-05-11T01:42:26.768Z,0
2017-05-11T01:43:39.278Z,0
2017-05-11T01:44:51.484Z,0
2017-05-11T01:46:03.702Z,0
2017-05-11T01:47:16.493Z,0
2017-05-11T01:48:29.018Z,0
2017-05-11T01:49:41.544Z,0
2017-05-11T01:50:53.785Z,0
2017-05-11T01:52:06.302Z,0
2017-05-11T01:53:18.832Z,0
2017-05-11T01:54:31.376Z,0
2017-05-11T01:55:43.939Z,0
2017-05-11T01:56:56.468Z,0
2017-05-11T01:58:08.689Z,0
2017-05-11T01:59:21.225Z,0
2017-05-11T02:00:33.727Z,0
2017-05-11T02:01:46.248Z,0
2017-05-11T02:02:58.815Z,0
2017-05-11T02:04:11.319Z,0
2017-05-11T02:05:23.840Z,0
2017-05-11T02:06:36.385Z,0
2017-05-11T02:07:48.920Z,0
2017-05-11T02:09:01.457Z,0
2017-05-11T02:10:13.695Z,0
2017-05-11T02:11:26.215Z,0
2017-05-11T02:12:38.740Z,0
2017-05-11T02:13:51.263Z,0
2017-05-11T02:15:03.478Z,0
2017-05-11T02:16:16.026Z,0
2017-05-11T02:17:28.575Z,0
2017-05-11T02:18:41.091Z,0
2017-05-11T02:19:53.611Z,0
2017-05-11T02:21:05.829Z,0
2017-05-11T02:22:18.083Z,0
2017-05-11T02:23:30.603Z,0
2017-05-11T02:24:43.171Z,0
2017-05-11T02:25:55.091Z,0
2017-05-11T02:27:07.308Z,0
2017-05-11T02:28:19.863Z,0
2017-05-11T02:29:32.371Z,0
2017-05-11T02:30:45.200Z,0
2017-05-11T02:31:57.718Z,0
2017-05-11T02:33:10.267Z,0
2017-05-11T02:34:22.788Z,0
2017-05-11T02:35:35.311Z,4
2017-05-11T02:36:47.209Z,4
2017-05-11T02:37:59.729Z,0
2017-05-11T02:39:12.246Z,0
2017-05-11T02:40:24.787Z,4
2017-05-11T02:41:37.292Z,4
2017-05-11T02:42:49.213Z,4
2017-05-11T02:44:01.755Z,4
2017-05-11T02:45:13.955Z,8
2017-05-11T02:46:26.475Z,4
2017-05-11T02:47:39.039Z,8
2017-05-11T02:48:51.566Z,8
2017-05-11T02:50:04.085Z,8
2017-05-11T02:51:16.608Z,16
2017-05-11T02:52:29.106Z,16
2017-05-11T02:53:41.623Z,16
2017-05-11T02:54:54.153Z,20
2017-05-11T02:56:06.681Z,24
2017-05-11T02:57:19.216Z,28
2017-05-11T02:58:31.751Z,32
2017-05-11T02:59:43.977Z,36
2017-05-11T03:00:56.191Z,44
2017-05-11T03:02:08.722Z,48
2017-05-11T03:03:21.215Z,56
2017-05-11T03:04:33.739Z,64
2017-05-11T03:05:46.263Z,72
2017-05-11T03:06:58.760Z,84
2017-05-11T03:08:11.002Z,92
2017-05-11T03:09:23.798Z,104
2017-05-11T03:10:36.336Z,116
2017-05-11T03:11:48.889Z,128
2017-05-11T03:13:01.127Z,140
2017-05-11T03:14:13.670Z,156
2017-05-11T03:15:26.201Z,172
2017-05-11T03:16:38.716Z,188
2017-05-11T03:17:50.944Z,212
2017-05-11T03:19:03.454Z,232
2017-05-11T03:20:16.007Z,256
2017-05-11T03:21:28.548Z,284
2017-05-11T03:22:40.504Z,312
2017-05-11T03:23:53.045Z,348
2017-05-11T03:25:05.266Z,380
2017-05-11T03:26:17.770Z,420
2017-05-11T03:27:30.333Z,460
2017-05-11T03:28:42.833Z,504
2017-05-11T03:29:55.397Z,552
2017-05-11T03:31:07.625Z,604
2017-05-11T03:32:20.144Z,656
2017-05-11T03:33:32.391Z,716
2017-05-11T03:34:44.940Z,776
2017-05-11T03:35:57.147Z,836
2017-05-11T03:37:09.659Z,896
2017-05-11T03:38:22.200Z,968
2017-05-11T03:39:34.718Z,1032
2017-05-11T03:40:47.242Z,1108
2017-05-11T03:41:59.786Z,1184
2017-05-11T03:43:12.347Z,1260
2017-05-11T03:44:24.877Z,1340
2017-05-11T03:45:37.425Z,1424
2017-05-11T03:46:49.942Z,1508
2017-05-11T03:48:02.492Z,1592
2017-05-11T03:49:14.739Z,1680
2017-05-11T03:50:27.273Z,1764
2017-05-11T03:51:39.811Z,1856
2017-05-11T03:52:52.646Z,1944
2017-05-11T03:54:04.593Z,2036
2017-05-11T03:55:17.093Z,2136
2017-05-11T03:56:29.588Z,2232
2017-05-11T03:57:42.139Z,2316
2017-05-11T03:58:54.677Z,2396
2017-05-11T04:00:07.176Z,2460
2017-05-11T04:01:19.695Z,2520
2017-05-11T04:02:32.239Z,2572
2017-05-11T04:03:44.781Z,2616
2017-05-11T04:04:57.336Z,2644
2017-05-11T04:06:09.580Z,2668
2017-05-11T04:07:22.127Z,2716
2017-05-11T04:08:34.982Z,2772
2017-05-11T04:09:47.533Z,2840
2017-05-11T04:11:00.053Z,2900
2017-05-11T04:12:12.286Z,2956
2017-05-11T04:13:24.848Z,3020
2017-05-11T04:14:37.372Z,3072
2017-05-11T04:15:49.598Z,3132
2017-05-11T04:17:01.844Z,3200
2017-05-11T04:18:14.061Z,3264
2017-05-11T04:19:26.884Z,3324
2017-05-11T04:20:39.398Z,3396
2017-05-11T04:21:51.907Z,3476
2017-05-11T04:23:04.120Z,3572
2017-05-11T04:24:16.641Z,3672
2017-05-11T04:25:29.139Z,3780
2017-05-11T04:26:41.361Z,3888
2017-05-11T04:27:53.596Z,4004
2017-05-11T04:29:06.129Z,4120
2017-05-11T04:30:18.376Z,4232
2017-05-11T04:31:30.920Z,4328
2017-05-11T04:32:43.165Z,4408
2017-05-11T04:33:55.690Z,4488
2017-05-11T04:35:07.905Z,4584
2017-05-11T04:36:20.400Z,4696
2017-05-11T04:37:32.941Z,4848
2017-05-11T04:38:45.447Z,5024
2017-05-11T04:39:57.991Z,5216
2017-05-11T04:41:10.234Z,5404
2017-05-11T04:42:22.730Z,5576
2017-05-11T04:43:34.929Z,5772
2017-05-11T04:44:47.466Z,5968
2017-05-11T04:45:59.667Z,6148
2017-05-11T04:47:12.206Z,6336
2017-05-11T04:48:24.458Z,6484
2017-05-11T04:49:36.990Z,6624
2017-05-11T04:50:49.526Z,6764
2017-05-11T04:52:02.324Z,6884
2017-05-11T04:53:14.871Z,6996
2017-05-11T04:54:27.114Z,7132
2017-05-11T04:55:39.313Z,7272
2017-05-11T04:56:51.830Z,7404
2017-05-11T04:58:04.348Z,7532
2017-05-11T04:59:16.897Z,7660
2017-05-11T05:00:29.440Z,7784
2017-05-11T05:01:41.982Z,7868
2017-05-11T05:02:54.510Z,7940
2017-05-11T05:04:07.055Z,7968
2017-05-11T05:05:19.586Z,7984
2017-05-11T05:06:31.819Z,8000
2017-05-11T05:07:44.351Z,7984
2017-05-11T05:08:56.889Z,7980
2017-05-11T05:10:09.115Z,8064
2017-05-11T05:11:21.660Z,8220
2017-05-11T05:12:33.879Z,8408
2017-05-11T05:13:46.400Z,8448
2017-05-11T05:14:58.625Z,8416
2017-05-11T05:16:10.840Z,8344
2017-05-11T05:17:23.064Z,8216
2017-05-11T05:18:35.311Z,8164
2017-05-11T05:19:47.858Z,8140
2017-05-11T05:21:00.398Z,8272
2017-05-11T05:22:12.620Z,8344
2017-05-11T05:23:25.116Z,8384
2017-05-11T05:24:37.933Z,8412
2017-05-11T05:25:50.484Z,8480
2017-05-11T05:27:03.034Z,8440
2017-05-11T05:28:15.274Z,8432
2017-05-11T05:29:27.795Z,8480
2017-05-11T05:30:40.343Z,8568
2017-05-11T05:31:52.561Z,8768
2017-05-11T05:33:04.803Z,8956
2017-05-11T05:34:17.324Z,9068
2017-05-11T05:35:29.532Z,8960
2017-05-11T05:36:42.063Z,9268
2017-05-11T05:37:54.583Z,9332
2017-05-11T05:39:07.162Z,9620
2017-05-11T05:40:19.388Z,9524
2017-05-11T05:41:31.954Z,9332
2017-05-11T05:42:44.470Z,9208
2017-05-11T05:43:57.034Z,9372
2017-05-11T05:45:09.268Z,9460
2017-05-11T05:46:21.823Z,9552
2017-05-11T05:47:34.359Z,9696
2017-05-11T05:48:46.905Z,10216
2017-05-11T05:49:59.450Z,10480
2017-05-11T05:51:11.989Z,10492
2017-05-11T05:52:24.563Z,10108
2017-05-11T05:53:36.806Z,10228
2017-05-11T05:54:49.334Z,10064
2017-05-11T05:56:01.848Z,10420
2017-05-11T05:57:14.075Z,10904
2017-05-11T05:58:26.597Z,10364
2017-05-11T05:59:38.822Z,10760
2017-05-11T06:00:51.366Z,12896
2017-05-11T06:02:03.889Z,12188
2017-05-11T06:03:16.134Z,10900
2017-05-11T06:04:28.705Z,10616
2017-05-11T06:05:41.244Z,11484
2017-05-11T06:06:53.792Z,11748
2017-05-11T06:08:06.085Z,12768
2017-05-11T06:09:18.610Z,14636
2017-05-11T06:10:31.151Z,13068
2017-05-11T06:11:43.109Z,13736
2017-05-11T06:12:55.665Z,14652
2017-05-11T06:14:07.597Z,16640
2017-05-11T06:15:20.145Z,18880
2017-05-11T06:16:32.689Z,19552
2017-05-11T06:17:45.248Z,22048
2017-05-11T06:18:58.083Z,26080
2017-05-11T06:20:10.023Z,23904
2017-05-11T06:21:22.565Z,21312
2017-05-11T06:22:35.094Z,20800
2017-05-11T06:23:47.641Z,21088
2017-05-11T06:24:59.599Z,33376
2017-05-11T06:26:11.810Z,44896
2017-05-11T06:27:24.078Z,41984
2017-05-11T06:28:36.636Z,41088
2017-05-11T06:29:49.197Z,39328
2017-05-11T06:31:01.757Z,38240
2017-05-11T06:32:14.310Z,36224
2017-05-11T06:33:26.858Z,33664
2017-05-11T06:34:39.410Z,32032
2017-05-11T06:35:51.945Z,30048
2017-05-11T06:37:04.469Z,29344
2017-05-11T06:38:16.729Z,27968
2017-05-11T06:39:28.965Z,31072
2017-05-11T06:40:41.778Z,33664
2017-05-11T06:41:53.992Z,36544
2017-05-11T06:43:06.247Z,37568
2017-05-11T06:44:18.471Z,39808
2017-05-11T06:45:31.020Z,42400
2017-05-11T06:46:43.583Z,46144
2017-05-11T06:47:56.123Z,46880
2017-05-11T06:49:08.655Z,46400
2017-05-11T06:50:21.242Z,49760
2017-05-11T06:51:33.788Z,49632
2017-05-11T06:52:46.038Z,50304
2017-05-11T06:53:58.601Z,50912
2017-05-11T06:55:11.155Z,52768
2017-05-11T06:56:23.401Z,53568
2017-05-11T06:57:35.667Z,48992
2017-05-11T06:58:48.239Z,49376
2017-05-11T07:00:00.795Z,49312
2017-05-11T07:01:13.051Z,51584
2017-05-11T07:02:25.556Z,54720
2017-05-11T07:03:38.122Z,54336
2017-05-11T07:04:50.675Z,53952
2017-05-11T07:06:02.911Z,55488
2017-05-11T07:07:14.581Z,56128
2017-05-11T07:08:26.785Z,54848
2017-05-11T07:09:39.334Z,55712
2017-05-11T07:10:51.581Z,56352
2017-05-11T07:12:04.123Z,44704
2017-05-11T07:13:16.669Z,45728
2017-05-11T07:14:29.191Z,46560
2017-05-11T07:15:41.435Z,53856
2017-05-11T07:16:53.985Z,54272
2017-05-11T07:18:06.553Z,59648
2017-05-11T07:19:18.801Z,59296
2017-05-11T07:20:31.373Z,57280
2017-05-11T07:21:43.918Z,55808
2017-05-11T07:22:56.179Z,55008
2017-05-11T07:24:08.431Z,50912
2017-05-11T07:25:20.057Z,49600
2017-05-11T07:26:32.624Z,45056
2017-05-11T07:27:45.191Z,47168
2017-05-11T07:28:57.733Z,48544
2017-05-11T07:30:09.686Z,47552
2017-05-11T07:31:21.612Z,47680
2017-05-11T07:32:34.145Z,45600
2017-05-11T07:33:46.678Z,47424
2017-05-11T07:34:59.220Z,47232
2017-05-11T07:36:11.445Z,52160
2017-05-11T07:37:23.987Z,54720
2017-05-11T07:38:36.513Z,56480
2017-05-11T07:39:49.096Z,58592
2017-05-11T07:41:01.646Z,58976
2017-05-11T07:42:13.876Z,57472
2017-05-11T07:43:26.397Z,58272
2017-05-11T07:44:38.970Z,54048
2017-05-11T07:45:51.208Z,53760
2017-05-11T07:47:03.430Z,57504
2017-05-11T07:48:15.931Z,62240
2017-05-11T07:49:28.197Z,60128
2017-05-11T07:50:40.438Z,54432
2017-05-11T07:51:52.994Z,59392
2017-05-11T07:53:05.530Z,65248
2017-05-11T07:54:17.790Z,68000
2017-05-11T07:55:30.350Z,67904
2017-05-11T07:56:42.892Z,68160
2017-05-11T07:57:55.119Z,70496
2017-05-11T07:59:07.691Z,70816
2017-05-11T08:00:20.251Z,72480
2017-05-11T08:01:32.508Z,72160
2017-05-11T08:02:45.083Z,67360
2017-05-11T08:03:57.323Z,66944
2017-05-11T08:05:09.593Z,66368
2017-05-11T08:06:21.856Z,64672
2017-05-11T08:07:34.110Z,65280
2017-05-11T08:08:46.377Z,62080
2017-05-11T08:09:58.952Z,65536
2017-05-11T08:11:10.879Z,64640
2017-05-11T08:12:23.472Z,64320
2017-05-11T08:13:36.043Z,62720
2017-05-11T08:14:48.356Z,63904
2017-05-11T08:16:00.911Z,66816
2017-05-11T08:17:13.181Z,71520
2017-05-11T08:18:26.043Z,71136
2017-05-11T08:19:37.994Z,71456
2017-05-11T08:20:50.561Z,77216
2017-05-11T08:22:02.208Z,78272
2017-05-11T08:23:14.483Z,75168
2017-05-11T08:24:27.046Z,54048
2017-05-11T08:25:39.324Z,21248
2017-05-11T08:26:51.549Z,15380
2017-05-11T08:28:04.118Z,27136
2017-05-11T08:29:16.663Z,33312
2017-05-11T08:30:28.926Z,32512
2017-05-11T08:31:41.182Z,34304
2017-05-11T08:32:53.728Z,34272
2017-05-11T08:34:06.295Z,35168
2017-05-11T08:35:18.493Z,36832
2017-05-11T08:36:30.433Z,38752
2017-05-11T08:37:43.002Z,40896
2017-05-11T08:38:55.529Z,43264
2017-05-11T08:40:08.080Z,46656
2017-05-11T08:41:20.322Z,26240
2017-05-11T08:42:32.892Z,14184
2017-05-11T08:43:45.457Z,37824
2017-05-11T08:44:58.037Z,53920
2017-05-11T08:46:10.326Z,52512
2017-05-11T08:47:22.568Z,54464
2017-05-11T08:48:35.104Z,55168
2017-05-11T08:49:47.671Z,56000
2017-05-11T08:50:59.617Z,54624
2017-05-11T08:52:11.927Z,53568
2017-05-11T08:53:24.158Z,50816
2017-05-11T08:54:36.431Z,49472
2017-05-11T08:55:48.702Z,47360
2017-05-11T08:57:01.272Z,44544
2017-05-11T08:58:12.889Z,44160
2017-05-11T08:59:25.414Z,45088
2017-05-11T09:00:38.006Z,43584
2017-05-11T09:01:50.531Z,43488
2017-05-11T09:03:03.118Z,41792
2017-05-11T09:04:15.350Z,38848
2017-05-11T09:05:27.291Z,38528
2017-05-11T09:06:39.860Z,37440
2017-05-11T09:07:52.409Z,36800
2017-05-11T09:09:04.981Z,35104
2017-05-11T09:10:17.527Z,36288
2017-05-11T09:11:30.068Z,34400
2017-05-11T09:12:42.587Z,33888
2017-05-11T09:13:55.114Z,33792
2017-05-11T09:15:07.361Z,33664
2017-05-11T09:16:19.881Z,32928
2017-05-11T09:17:31.829Z,31552
2017-05-11T09:18:44.398Z,30688
2017-05-11T09:19:56.945Z,30752
2017-05-11T09:21:09.212Z,29888
2017-05-11T09:22:21.461Z,20288
2017-05-11T09:23:33.728Z,16160
2017-05-11T09:24:46.294Z,27904
2017-05-11T09:25:58.822Z,36192
2017-05-11T09:27:11.094Z,39776
2017-05-11T09:28:23.037Z,42464
2017-05-11T09:29:35.587Z,46464
2017-05-11T09:30:48.153Z,52448
2017-05-11T09:32:00.395Z,55328
2017-05-11T09:33:12.648Z,57984
2017-05-11T09:34:24.607Z,59584
2017-05-11T09:35:36.857Z,62912
2017-05-11T09:36:49.111Z,69088
2017-05-11T09:38:01.682Z,72992
2017-05-11T09:39:14.224Z,75680
2017-05-11T09:40:26.750Z,78944
2017-05-11T09:41:39.316Z,76352
2017-05-11T09:42:51.854Z,75360
2017-05-11T09:44:04.437Z,76384
2017-05-11T09:45:17.000Z,75840
2017-05-11T09:46:29.254Z,75072
2017-05-11T09:47:41.525Z,55104
2017-05-11T09:48:54.091Z,30848
2017-05-11T09:50:06.342Z,47104
2017-05-11T09:51:18.883Z,71392
2017-05-11T09:52:31.433Z,74336
2017-05-11T09:53:44.002Z,62656
2017-05-11T09:54:56.554Z,32320
2017-05-11T09:56:09.122Z,16908
2017-05-11T09:57:21.398Z,28128
2017-05-11T09:58:33.960Z,55616
2017-05-11T09:59:46.210Z,74560
2017-05-11T10:00:58.451Z,73600
2017-05-11T10:02:10.371Z,72864
2017-05-11T10:03:22.961Z,72928
2017-05-11T10:04:35.218Z,75744
2017-05-11T10:05:47.788Z,75040
2017-05-11T10:06:59.751Z,76704
2017-05-11T10:08:12.330Z,78976
2017-05-11T10:09:24.618Z,78624
2017-05-11T10:10:37.146Z,77376
2017-05-11T10:11:49.390Z,76192
2017-05-11T10:13:01.935Z,76416
2017-05-11T10:14:13.855Z,77312
2017-05-11T10:15:25.805Z,79936
2017-05-11T10:16:38.379Z,81504
2017-05-11T10:17:51.222Z,81664
2017-05-11T10:19:03.789Z,81632
2017-05-11T10:20:16.339Z,81216
2017-05-11T10:21:28.909Z,81344
2017-05-11T10:22:41.195Z,79328
2017-05-11T10:23:53.740Z,76416
2017-05-11T10:25:05.999Z,76000
2017-05-11T10:26:17.983Z,78752
2017-05-11T10:27:30.516Z,78848
2017-05-11T10:28:42.756Z,80672
2017-05-11T10:29:55.309Z,80256
2017-05-11T10:31:07.852Z,78720
2017-05-11T10:32:20.119Z,77536
2017-05-11T10:33:32.062Z,78816
2017-05-11T10:34:44.612Z,80320
2017-05-11T10:35:57.185Z,79680
2017-05-11T10:37:09.760Z,78816
2017-05-11T10:38:22.345Z,78368
2017-05-11T10:39:34.890Z,80224
2017-05-11T10:40:47.436Z,84640
2017-05-11T10:41:59.690Z,83904
2017-05-11T10:43:11.979Z,82208
2017-05-11T10:44:24.222Z,82304
2017-05-11T10:45:36.777Z,84768
2017-05-11T10:46:49.366Z,86272
2017-05-11T10:48:01.918Z,83776
2017-05-11T10:49:14.190Z,82208
2017-05-11T10:50:26.736Z,82944
2017-05-11T10:51:39.005Z,85088
2017-05-11T10:52:51.550Z,83744
2017-05-11T10:54:04.121Z,83264
2017-05-11T10:55:16.084Z,80224
2017-05-11T10:56:28.662Z,79328
2017-05-11T10:57:41.217Z,77376
2017-05-11T10:58:53.784Z,77184
2017-05-11T11:00:06.369Z,78816
2017-05-11T11:01:18.350Z,77216
2017-05-11T11:02:30.621Z,76992
2017-05-11T11:03:42.937Z,79264
2017-05-11T11:04:55.485Z,79552
2017-05-11T11:06:08.059Z,77824
2017-05-11T11:07:20.656Z,76640
2017-05-11T11:08:33.200Z,75808
2017-05-11T11:09:45.785Z,73152
2017-05-11T11:10:58.072Z,74336
2017-05-11T11:12:10.033Z,77664
2017-05-11T11:13:22.305Z,75776
2017-05-11T11:14:34.893Z,72544
2017-05-11T11:15:46.842Z,77568
2017-05-11T11:16:59.386Z,80480
2017-05-11T11:18:11.914Z,79104
2017-05-11T11:19:24.436Z,79232
2017-05-11T11:20:37.002Z,78048
2017-05-11T11:21:48.948Z,79456
2017-05-11T11:23:01.519Z,80256
2017-05-11T11:24:14.064Z,77376
2017-05-11T11:25:26.344Z,74720
2017-05-11T11:26:38.920Z,73664
2017-05-11T11:27:51.577Z,74496
2017-05-11T11:29:04.135Z,73440
2017-05-11T11:30:16.428Z,74080
2017-05-11T11:31:28.715Z,72768
2017-05-11T11:32:41.286Z,67776
2017-05-11T11:33:53.878Z,67552
2017-05-11T11:35:06.436Z,69632
2017-05-11T11:36:18.709Z,70816
2017-05-11T11:37:31.277Z,70080
2017-05-11T11:38:43.819Z,72736
2017-05-11T11:39:56.383Z,73824
2017-05-11T11:41:08.641Z,72576
2017-05-11T11:42:21.212Z,73888
2017-05-11T11:43:33.460Z,74912
2017-05-11T11:44:46.027Z,75552
2017-05-11T11:45:58.550Z,76448
2017-05-11T11:47:11.123Z,79072
2017-05-11T11:48:23.704Z,77184
2017-05-11T11:49:35.659Z,73824
2017-05-11T11:50:48.204Z,71808
2017-05-11T11:52:00.520Z,71136
2017-05-11T11:53:12.474Z,73152
2017-05-11T11:54:24.762Z,70880
2017-05-11T11:55:37.034Z,71968
2017-05-11T11:56:49.286Z,71104
2017-05-11T11:58:01.613Z,71008
2017-05-11T11:59:14.196Z,71584
2017-05-11T12:00:26.190Z,71104
2017-05-11T12:01:38.742Z,69920
2017-05-11T12:02:51.289Z,68544
2017-05-11T12:04:02.939Z,65632
2017-05-11T12:05:15.209Z,65184
2017-05-11T12:06:27.477Z,64672
2017-05-11T12:07:40.076Z,65824
2017-05-11T12:08:52.646Z,65056
2017-05-11T12:10:05.243Z,63648
2017-05-11T12:11:17.486Z,62976
2017-05-11T12:12:30.076Z,62432
2017-05-11T12:13:42.627Z,61472
2017-05-11T12:14:55.193Z,60768
2017-05-11T12:16:07.464Z,62080
2017-05-11T12:17:20.313Z,64448
2017-05-11T12:18:32.560Z,66368
2017-05-11T12:19:44.806Z,65600
2017-05-11T12:20:57.397Z,65408
2017-05-11T12:22:09.329Z,70368
2017-05-11T12:23:21.615Z,72896
2017-05-11T12:24:33.568Z,72608
2017-05-11T12:25:46.140Z,73056
2017-05-11T12:26:58.735Z,72544
2017-05-11T12:28:11.305Z,71136
2017-05-11T12:29:23.894Z,70560
2017-05-11T12:30:36.474Z,70496
2017-05-11T12:31:48.745Z,68832
2017-05-11T12:33:01.069Z,67680
2017-05-11T12:34:13.635Z,67840
2017-05-11T12:35:26.207Z,68192
2017-05-11T12:36:38.775Z,69824
2017-05-11T12:37:51.015Z,68640
2017-05-11T12:39:03.265Z,66400
2017-05-11T12:40:15.261Z,65760
2017-05-11T12:41:27.838Z,67200
2017-05-11T12:42:40.420Z,64672
2017-05-11T12:43:53.016Z,62144
2017-05-11T12:45:05.295Z,64128
2017-05-11T12:46:17.866Z,63456
2017-05-11T12:47:30.416Z,62528
2017-05-11T12:48:42.975Z,62400
2017-05-11T12:49:55.523Z,61504
2017-05-11T12:51:07.804Z,53120
2017-05-11T12:52:20.091Z,56608
2017-05-11T12:53:32.670Z,62272
2017-05-11T12:54:45.239Z,60128
2017-05-11T12:55:57.485Z,58880
2017-05-11T12:57:09.750Z,56640
2017-05-11T12:58:21.753Z,57088
2017-05-11T12:59:34.324Z,57856
2017-05-11T13:00:46.909Z,60160
2017-05-11T13:01:59.180Z,60928
2017-05-11T13:03:11.463Z,60000
2017-05-11T13:04:24.026Z,61216
2017-05-11T13:05:36.317Z,60960
2017-05-11T13:06:48.876Z,59776
2017-05-11T13:08:01.138Z,58976
2017-05-11T13:09:13.389Z,60736
2017-05-11T13:10:25.950Z,62176
2017-05-11T13:11:38.204Z,63584
2017-05-11T13:12:50.793Z,63456
2017-05-11T13:14:03.039Z,65632
2017-05-11T13:15:15.002Z,62784
2017-05-11T13:16:26.967Z,63424
2017-05-11T13:17:39.535Z,61408
2017-05-11T13:18:52.084Z,59008
2017-05-11T13:20:04.655Z,56928
2017-05-11T13:21:16.898Z,57312
2017-05-11T13:22:29.476Z,11780
2017-05-11T13:23:42.043Z,59392
2017-05-11T13:24:54.312Z,61504
2017-05-11T13:26:06.857Z,61792
2017-05-11T13:27:19.402Z,59104
2017-05-11T13:28:31.928Z,61312
2017-05-11T13:29:44.511Z,60768
2017-05-11T13:30:57.040Z,56384
2017-05-11T13:32:09.315Z,53888
2017-05-11T13:33:21.584Z,55744
2017-05-11T13:34:34.129Z,56256
2017-05-11T13:35:46.719Z,54848
2017-05-11T13:36:59.322Z,53184
2017-05-11T13:38:11.890Z,52768
2017-05-11T13:39:24.111Z,55040
2017-05-11T13:40:36.067Z,57280
2017-05-11T13:41:48.332Z,57088
2017-05-11T13:43:00.598Z,57696
2017-05-11T13:44:13.398Z,55392
2017-05-11T13:45:25.986Z,55136
2017-05-11T13:46:38.262Z,57280
2017-05-11T13:47:50.804Z,55488
2017-05-11T13:49:03.079Z,54752
2017-05-11T13:50:15.327Z,54048
2017-05-11T13:51:27.922Z,54976
2017-05-11T13:52:40.146Z,54688
2017-05-11T13:53:52.717Z,54432
2017-05-11T13:55:05.308Z,53728
2017-05-11T13:56:17.539Z,54112
2017-05-11T13:57:30.129Z,53792
2017-05-11T13:58:42.696Z,52864
2017-05-11T13:59:55.243Z,51264
2017-05-11T14:01:07.530Z,49920
2017-05-11T14:02:20.113Z,49920
2017-05-11T14:03:32.675Z,48832
2017-05-11T14:04:45.268Z,48832
2017-05-11T14:05:57.824Z,49312
2017-05-11T14:07:10.370Z,49376
2017-05-11T14:08:22.919Z,49600
2017-05-11T14:09:35.502Z,50432
2017-05-11T14:10:48.062Z,48864
2017-05-11T14:12:00.631Z,46336
2017-05-11T14:13:12.878Z,45184
2017-05-11T14:14:25.445Z,46944
2017-05-11T14:15:37.970Z,45536
2017-05-11T14:16:50.536Z,44800
2017-05-11T14:18:03.078Z,42688
2017-05-11T14:19:15.308Z,39232
2017-05-11T14:20:27.893Z,38272
2017-05-11T14:21:40.163Z,38656
2017-05-11T14:22:52.706Z,38112
2017-05-11T14:24:05.262Z,36832
2017-05-11T14:25:17.510Z,37632
2017-05-11T14:26:29.781Z,36960
2017-05-11T14:27:42.048Z,36288
2017-05-11T14:28:54.597Z,33952
2017-05-11T14:30:07.148Z,31680
2017-05-11T14:31:19.406Z,30944
2017-05-11T14:32:31.955Z,30752
2017-05-11T14:33:44.202Z,30976
2017-05-11T14:34:56.752Z,18368
2017-05-11T14:36:08.697Z,7512
2017-05-11T14:37:20.665Z,6928
2017-05-11T14:38:33.461Z,7432
2017-05-11T14:39:46.037Z,6868
2017-05-11T14:40:58.624Z,6784
2017-05-11T14:42:11.178Z,6728
2017-05-11T14:43:23.448Z,6668
2017-05-11T14:44:36.021Z,6704
2017-05-11T14:45:48.606Z,9604
2017-05-11T14:47:01.158Z,8812
2017-05-11T14:48:13.404Z,6780
2017-05-11T14:49:25.979Z,6960
2017-05-11T14:50:38.242Z,6796
2017-05-11T14:51:50.766Z,7080
2017-05-11T14:53:03.315Z,6824
2017-05-11T14:54:14.960Z,7832
2017-05-11T14:55:27.209Z,10036
2017-05-11T14:56:39.804Z,8256
2017-05-11T14:57:52.066Z,10080
2017-05-11T14:59:04.667Z,6444
2017-05-11T15:00:16.942Z,6184
2017-05-11T15:01:29.486Z,8500
2017-05-11T15:02:42.050Z,10616
2017-05-11T15:03:54.275Z,9568
2017-05-11T15:05:06.796Z,7032
2017-05-11T15:06:19.320Z,6140
2017-05-11T15:07:31.584Z,6076
2017-05-11T15:08:44.128Z,6044
2017-05-11T15:09:56.684Z,5972
2017-05-11T15:11:09.243Z,5960
2017-05-11T15:12:21.821Z,6004
2017-05-11T15:13:34.346Z,6040
2017-05-11T15:14:46.893Z,5996
2017-05-11T15:15:59.159Z,5988
2017-05-11T15:17:11.680Z,5856
2017-05-11T15:18:23.946Z,5792
2017-05-11T15:19:36.493Z,5744
2017-05-11T15:20:49.043Z,5700
2017-05-11T15:22:01.593Z,5648
2017-05-11T15:23:13.836Z,5624
2017-05-11T15:24:26.034Z,5592
2017-05-11T15:25:38.594Z,5600
2017-05-11T15:26:51.172Z,5604
2017-05-11T15:28:03.693Z,5656
2017-05-11T15:29:15.615Z,5700
2017-05-11T15:30:28.162Z,5712
2017-05-11T15:31:40.681Z,5692
2017-05-11T15:32:53.205Z,5652
2017-05-11T15:34:05.451Z,5580
2017-05-11T15:35:18.042Z,5516
2017-05-11T15:36:30.564Z,5524
2017-05-11T15:37:42.523Z,5536
2017-05-11T15:38:55.057Z,5544
2017-05-11T15:40:07.278Z,5580
2017-05-11T15:41:19.844Z,5572
2017-05-11T15:42:32.386Z,5524
2017-05-11T15:43:44.645Z,5528
2017-05-11T15:44:57.164Z,5492
2017-05-11T15:46:09.726Z,5412
2017-05-11T15:47:22.282Z,5428
2017-05-11T15:48:34.827Z,5380
2017-05-11T15:49:46.792Z,5356
2017-05-11T15:50:59.022Z,5372
2017-05-11T15:52:11.593Z,5376
2017-05-11T15:53:24.126Z,5288
2017-05-11T15:54:36.630Z,5208
2017-05-11T15:55:49.152Z,5240
2017-05-11T15:57:01.700Z,5228
2017-05-11T15:58:13.944Z,5216
2017-05-11T15:59:25.596Z,5132
2017-05-11T16:00:38.150Z,5076
2017-05-11T16:01:50.678Z,5056
2017-05-11T16:03:03.200Z,5076
2017-05-11T16:04:15.421Z,5100
2017-05-11T16:05:27.987Z,5048